Terminal Aerodrome Forecast
Issued by NWS Bismarck, ND

Current Version | Previous Version | Text Only | Print | Product List | Glossary On
Versions: 1 2 3 4 5 6 7 8 9 10 11 12 13 14 15 16 17 18 19 20 21 22
437
FTUS43 KBIS 301734
TAFISN
TAF
KISN 301734Z 3018/3118 10005KT P6SM OVC080
     FM310600 VRB03KT P6SM VCSH OVC060
     FM311200 08005KT P6SM OVC020
     FM311300 08005KT 5SM BR OVC015
     FM311500 07006KT 2SM -RA BR OVC010=

USA.gov is the U.S. government's official web portal to all federal, state and local government web resources and services.